createdAt,value
2023-02-21T00:02:30.443Z,12.80
2023-02-21T00:05:51.013Z,9.90
2023-02-21T00:09:11.189Z,10.77
2023-02-21T00:12:31.689Z,10.10
2023-02-21T00:15:52.123Z,12.37
2023-02-21T00:19:12.594Z,10.90
2023-02-21T00:22:33.047Z,11.70
2023-02-21T00:25:53.224Z,12.30
2023-02-21T00:29:13.413Z,9.57
2023-02-21T00:32:33.574Z,9.30
2023-02-21T00:35:54.106Z,21.93
2023-02-21T00:39:14.559Z,9.40
2023-02-21T00:42:34.961Z,15.57
2023-02-21T00:45:55.411Z,9.20
2023-02-21T00:49:15.808Z,12.67
2023-02-21T00:52:36.307Z,10.70
2023-02-21T00:55:56.529Z,11.00
2023-02-21T00:59:16.723Z,10.70
2023-02-21T01:02:37.187Z,11.63
2023-02-21T01:05:57.364Z,12.50
2023-02-21T01:09:17.390Z,11.10
2023-02-21T01:12:37.733Z,9.90
2023-02-21T01:15:58.117Z,8.10
2023-02-21T01:19:18.561Z,10.63
2023-02-21T01:22:38.734Z,9.67
2023-02-21T01:25:59.361Z,9.77
2023-02-21T01:29:19.357Z,12.33
2023-02-21T01:32:39.596Z,11.23
2023-02-21T01:35:59.845Z,12.20
2023-02-21T01:39:20.169Z,12.50
2023-02-21T01:42:40.424Z,17.43
2023-02-21T01:46:07.523Z,9.37
2023-02-21T01:49:32.223Z,11.00
2023-02-21T01:52:52.753Z,9.93
2023-02-21T01:56:15.356Z,11.63
2023-02-21T01:59:38.843Z,8.50
2023-02-21T02:03:21.859Z,15.33
2023-02-21T02:06:42.106Z,11.10
2023-02-21T02:10:02.306Z,12.73
2023-02-21T02:13:29.792Z,15.40
2023-02-21T02:16:49.294Z,12.77
2023-02-21T02:20:29.518Z,10.60
2023-02-21T02:23:55.174Z,8.67
2023-02-21T02:27:30.788Z,11.60
2023-02-21T02:31:01.236Z,12.60
2023-02-21T02:34:37.446Z,11.30
2023-02-21T02:38:01.432Z,13.67
2023-02-21T02:41:33.489Z,10.60
2023-02-21T02:44:40.269Z,12.97
2023-02-21T02:47:45.535Z,15.63
2023-02-21T02:50:49.410Z,14.60
2023-02-21T02:53:50.981Z,13.07
2023-02-21T02:56:52.622Z,11.73
2023-02-21T02:59:54.423Z,10.97
2023-02-21T03:03:23.533Z,12.60
2023-02-21T03:06:44.834Z,15.43
2023-02-21T03:10:12.066Z,16.07
2023-02-21T03:13:40.797Z,13.43
2023-02-21T03:16:55.503Z,17.20
2023-02-21T03:19:58.415Z,15.40
2023-02-21T03:23:03.017Z,14.83
2023-02-21T03:26:07.834Z,14.13
2023-02-21T03:29:10.430Z,13.63
2023-02-21T03:32:35.254Z,17.27
2023-02-21T03:35:36.924Z,16.00
2023-02-21T03:38:38.701Z,12.50
2023-02-21T03:41:40.503Z,12.27
2023-02-21T03:44:42.103Z,20.07
2023-02-21T03:47:43.810Z,11.53
2023-02-21T03:50:45.660Z,11.07
2023-02-21T03:53:47.346Z,14.73
2023-02-21T03:56:48.913Z,15.13
2023-02-21T03:59:50.525Z,13.77
2023-02-21T04:02:52.171Z,19.67
2023-02-21T04:05:53.764Z,12.90
2023-02-21T04:08:55.676Z,13.77
2023-02-21T04:11:57.362Z,14.00
2023-02-21T04:14:59.020Z,11.13
2023-02-21T04:18:00.668Z,13.93
2023-02-21T04:21:02.260Z,13.47
2023-02-21T04:24:04.091Z,15.77
2023-02-21T04:27:05.741Z,16.73
2023-02-21T04:30:08.117Z,12.27
2023-02-21T04:33:09.793Z,15.20
2023-02-21T04:36:11.369Z,12.20
2023-02-21T04:39:13.302Z,11.27
2023-02-21T04:42:14.914Z,12.67
2023-02-21T04:45:16.614Z,10.57
2023-02-21T04:48:18.502Z,16.60
2023-02-21T04:51:22.985Z,12.80
2023-02-21T04:54:24.626Z,8.80
2023-02-21T04:57:26.389Z,14.17
2023-02-21T05:00:27.996Z,12.33
2023-02-21T05:03:29.610Z,12.07
2023-02-21T05:06:31.725Z,12.30
2023-02-21T05:09:33.359Z,11.77
2023-02-21T05:12:35.678Z,12.23
2023-02-21T05:15:37.308Z,13.33
2023-02-21T05:18:41.113Z,15.20
2023-02-21T05:21:42.749Z,20.90
2023-02-21T05:24:44.407Z,11.37
2023-02-21T05:27:46.482Z,15.13
2023-02-21T05:30:48.587Z,15.30
2023-02-21T05:33:50.263Z,16.07
2023-02-21T05:36:51.947Z,14.23
2023-02-21T05:39:53.542Z,15.80
2023-02-21T05:42:55.182Z,13.70
2023-02-21T05:45:56.918Z,14.13
2023-02-21T05:48:59.984Z,17.90
2023-02-21T05:52:01.762Z,17.10
2023-02-21T05:55:03.606Z,13.70
2023-02-21T05:58:05.172Z,20.57
2023-02-21T06:01:06.985Z,13.93
2023-02-21T06:04:08.665Z,15.97
2023-02-21T06:07:10.257Z,15.10
2023-02-21T06:10:12.723Z,18.00
2023-02-21T06:13:14.300Z,17.67
2023-02-21T06:16:15.881Z,17.87
2023-02-21T06:19:18.820Z,19.17
2023-02-21T06:22:20.595Z,19.70
2023-02-21T06:25:22.249Z,16.47
2023-02-21T06:28:30.588Z,19.83
2023-02-21T06:31:32.402Z,17.50
2023-02-21T06:34:34.113Z,14.73
2023-02-21T06:37:35.732Z,16.67
2023-02-21T06:40:37.664Z,15.67
2023-02-21T06:43:39.395Z,14.73
2023-02-21T06:46:41.033Z,20.00
2023-02-21T06:49:43.212Z,14.20
2023-02-21T06:52:44.792Z,18.13
2023-02-21T06:55:46.352Z,23.10
2023-02-21T06:58:47.927Z,16.47
2023-02-21T07:01:49.697Z,15.87
2023-02-21T07:04:51.417Z,13.37
2023-02-21T07:07:53.132Z,17.97
2023-02-21T07:10:54.743Z,17.67
2023-02-21T07:13:59.465Z,17.43
2023-02-21T07:17:01.260Z,16.60
2023-02-21T07:20:04.313Z,13.57
2023-02-21T07:23:05.959Z,12.57
2023-02-21T07:26:07.570Z,17.63
2023-02-21T07:29:09.285Z,19.23
2023-02-21T07:32:10.894Z,15.67
2023-02-21T07:35:12.966Z,16.00
2023-02-21T07:38:22.210Z,16.87
2023-02-21T07:41:23.818Z,17.63
2023-02-21T07:44:25.461Z,15.73
2023-02-21T07:47:27.646Z,23.43
2023-02-21T07:50:29.266Z,25.70
2023-02-21T07:53:30.940Z,20.73
2023-02-21T07:56:32.565Z,19.40
2023-02-21T07:59:34.157Z,15.90
2023-02-21T08:02:35.754Z,18.20
2023-02-21T08:05:37.413Z,13.30
2023-02-21T08:08:39.025Z,16.10
2023-02-21T08:11:40.657Z,18.13
2023-02-21T08:14:42.300Z,24.53
2023-02-21T08:17:44.278Z,22.07
2023-02-21T08:20:46.269Z,16.67
2023-02-21T08:23:47.865Z,15.07
2023-02-21T08:26:49.409Z,15.83
2023-02-21T08:29:51.829Z,23.37
2023-02-21T08:32:53.467Z,22.03
2023-02-21T08:35:55.075Z,18.77
2023-02-21T08:38:56.662Z,15.47
2023-02-21T08:41:58.506Z,16.00
2023-02-21T08:45:00.195Z,19.87
2023-02-21T08:48:01.949Z,17.00
2023-02-21T08:51:04.214Z,18.53
2023-02-21T08:54:06.742Z,21.73
2023-02-21T08:57:08.812Z,18.53
2023-02-21T09:00:13.225Z,20.70
2023-02-21T09:03:14.798Z,23.97
2023-02-21T09:06:17.337Z,24.27
2023-02-21T09:09:18.988Z,22.70
2023-02-21T09:12:20.591Z,20.70
2023-02-21T09:15:22.187Z,22.20
2023-02-21T09:18:23.823Z,18.47
2023-02-21T09:21:25.825Z,18.40
2023-02-21T09:24:28.181Z,20.23
2023-02-21T09:27:38.779Z,21.63
2023-02-21T09:30:40.762Z,20.67
2023-02-21T09:33:42.409Z,20.37
2023-02-21T09:36:44.506Z,20.43
2023-02-21T09:39:46.155Z,17.97
2023-02-21T09:42:50.977Z,23.83
2023-02-21T09:45:54.784Z,21.80
2023-02-21T09:48:56.947Z,23.90
2023-02-21T09:52:00.662Z,20.17
2023-02-21T09:55:14.747Z,24.47
2023-02-21T09:58:19.569Z,19.57
2023-02-21T10:01:42.454Z,21.63
2023-02-21T10:05:07.518Z,20.00
2023-02-21T10:08:26.917Z,22.40
2023-02-21T10:11:54.340Z,20.60
2023-02-21T10:14:55.942Z,23.33
2023-02-21T10:18:27.074Z,24.40
2023-02-21T10:21:34.426Z,20.63
2023-02-21T10:24:36.128Z,20.83
2023-02-21T10:27:37.747Z,20.53
2023-02-21T10:30:40.934Z,18.80
2023-02-21T10:33:43.418Z,20.80
2023-02-21T10:36:45.058Z,22.70
2023-02-21T10:39:51.611Z,20.50
2023-02-21T10:43:05.212Z,19.57
2023-02-21T10:46:27.510Z,21.37
2023-02-21T10:50:00.546Z,19.93
2023-02-21T10:53:02.389Z,21.23
2023-02-21T10:56:19.290Z,17.70
2023-02-21T10:59:30.872Z,20.23
2023-02-21T11:02:36.325Z,21.30
2023-02-21T11:05:38.411Z,21.97
2023-02-21T11:08:42.885Z,18.53
2023-02-21T11:11:44.599Z,25.03
2023-02-21T11:15:05.798Z,19.80
2023-02-21T11:18:25.095Z,16.73
2023-02-21T11:21:26.733Z,17.87
2023-02-21T11:24:28.382Z,17.03
2023-02-21T11:27:32.923Z,17.27
2023-02-21T11:30:40.390Z,19.17
2023-02-21T11:33:52.048Z,16.27
2023-02-21T11:37:01.591Z,16.47
2023-02-21T11:40:06.249Z,15.47
2023-02-21T11:43:26.053Z,14.60
2023-02-21T11:46:36.153Z,18.27
2023-02-21T11:49:52.125Z,18.33
2023-02-21T11:53:23.061Z,17.27
2023-02-21T11:56:56.175Z,14.70
2023-02-21T12:00:35.551Z,15.27
2023-02-21T12:04:11.252Z,19.30
2023-02-21T12:07:30.070Z,15.57
2023-02-21T12:10:50.375Z,15.17
2023-02-21T12:14:03.240Z,16.17
2023-02-21T12:17:04.892Z,15.93
2023-02-21T12:20:25.617Z,16.17
2023-02-21T12:23:52.210Z,15.23
2023-02-21T12:27:15.891Z,17.03
2023-02-21T12:30:36.778Z,15.43
2023-02-21T12:34:12.840Z,15.60
2023-02-21T12:37:29.342Z,17.93
2023-02-21T12:41:01.738Z,19.07
2023-02-21T12:44:26.977Z,17.07
2023-02-21T12:47:46.580Z,19.40
2023-02-21T12:50:53.348Z,13.30
2023-02-21T12:54:04.181Z,16.77
2023-02-21T12:57:14.835Z,15.60
2023-02-21T13:00:44.149Z,13.47
2023-02-21T13:04:00.560Z,15.20
2023-02-21T13:07:18.909Z,14.00
2023-02-21T13:10:26.167Z,17.20
2023-02-21T13:13:34.376Z,16.03
2023-02-21T13:16:36.064Z,18.67
2023-02-21T13:20:02.714Z,12.50
2023-02-21T13:24:01.153Z,11.40
2023-02-21T13:27:31.781Z,16.70
2023-02-21T13:30:36.027Z,15.10
2023-02-21T13:33:45.909Z,12.73
2023-02-21T13:36:48.205Z,12.13
2023-02-21T13:39:54.702Z,14.67
2023-02-21T13:43:11.729Z,13.97
2023-02-21T13:46:45.892Z,14.27
2023-02-21T13:49:58.784Z,12.10
2023-02-21T13:53:09.464Z,12.27
2023-02-21T13:56:11.077Z,11.27
2023-02-21T13:59:34.852Z,11.70
2023-02-21T14:02:36.534Z,8.47
2023-02-21T14:05:47.715Z,13.37
2023-02-21T14:08:55.849Z,11.33
2023-02-21T14:12:04.662Z,13.00
2023-02-21T14:15:08.054Z,12.93
2023-02-21T14:18:27.129Z,9.77
2023-02-21T14:21:49.915Z,11.43
2023-02-21T14:25:03.378Z,12.00
2023-02-21T14:28:43.609Z,9.33
2023-02-21T14:32:03.980Z,10.87
2023-02-21T14:35:35.371Z,11.70
2023-02-21T14:38:42.328Z,11.73
2023-02-21T14:42:21.449Z,13.90
2023-02-21T14:46:01.011Z,11.77
2023-02-21T14:49:17.940Z,15.60
2023-02-21T14:52:37.063Z,12.50
2023-02-21T14:56:10.177Z,15.97
2023-02-21T14:59:31.902Z,12.03
2023-02-21T15:02:52.728Z,11.27
2023-02-21T15:06:02.220Z,15.30
2023-02-21T15:09:20.563Z,14.00
2023-02-21T15:12:22.719Z,14.00
2023-02-21T15:15:31.607Z,15.93
2023-02-21T15:18:35.673Z,11.70
2023-02-21T15:21:37.414Z,12.63
2023-02-21T15:24:39.078Z,11.83
2023-02-21T15:27:50.908Z,11.77
2023-02-21T15:31:03.136Z,11.23
2023-02-21T15:34:04.847Z,12.80
2023-02-21T15:37:29.616Z,13.67
2023-02-21T15:40:31.929Z,11.20
2023-02-21T15:43:37.892Z,11.17
2023-02-21T15:46:57.409Z,12.80
2023-02-21T15:50:04.581Z,10.30
2023-02-21T15:53:14.922Z,13.10
2023-02-21T15:56:23.112Z,10.73
2023-02-21T15:59:28.888Z,13.27
2023-02-21T16:02:32.435Z,11.47
2023-02-21T16:05:34.261Z,11.60
2023-02-21T16:08:38.701Z,13.00
2023-02-21T16:11:45.843Z,14.17
2023-02-21T16:15:29.885Z,12.97
2023-02-21T16:18:31.983Z,12.17
2023-02-21T16:21:33.600Z,15.00
2023-02-21T16:24:35.472Z,10.67
2023-02-21T16:27:42.488Z,15.47
2023-02-21T16:30:44.484Z,15.03
2023-02-21T16:33:46.201Z,18.00
2023-02-21T16:36:48.351Z,16.57
2023-02-21T16:39:50.185Z,12.90
2023-02-21T16:42:53.048Z,11.80
2023-02-21T16:45:57.952Z,15.67
2023-02-21T16:48:59.905Z,16.10
2023-02-21T16:52:01.517Z,13.10
2023-02-21T16:55:03.140Z,16.37
2023-02-21T16:58:29.605Z,14.67
2023-02-21T17:01:34.689Z,19.70
2023-02-21T17:04:36.402Z,14.80
2023-02-21T17:07:38.450Z,10.33
2023-02-21T17:10:40.042Z,21.00
2023-02-21T17:13:41.732Z,13.53
2023-02-21T17:16:45.023Z,14.87
2023-02-21T17:19:46.635Z,11.03
2023-02-21T17:22:48.688Z,12.37
2023-02-21T17:25:50.362Z,19.13
2023-02-21T17:28:52.141Z,16.30
2023-02-21T17:31:55.346Z,18.93
2023-02-21T17:34:57.001Z,19.90
2023-02-21T17:38:01.623Z,16.03
2023-02-21T17:41:04.304Z,20.20
2023-02-21T17:44:05.940Z,18.60
2023-02-21T17:47:08.656Z,23.90
2023-02-21T17:50:10.377Z,16.83
2023-02-21T17:53:12.080Z,18.83
2023-02-21T17:56:17.692Z,18.07
2023-02-21T17:59:19.921Z,20.23
2023-02-21T18:02:21.541Z,23.00
2023-02-21T18:05:23.691Z,20.77
2023-02-21T18:08:25.393Z,20.93
2023-02-21T18:11:26.986Z,23.63
2023-02-21T18:14:32.061Z,27.63
2023-02-21T18:17:33.768Z,21.07
2023-02-21T18:20:35.736Z,24.53
2023-02-21T18:23:38.069Z,27.20
2023-02-21T18:26:41.506Z,31.93
2023-02-21T18:29:43.136Z,38.63
2023-02-21T18:32:46.242Z,28.80
2023-02-21T18:35:48.334Z,48.60
2023-02-21T18:38:50.016Z,36.90
2023-02-21T18:41:52.959Z,37.27
2023-02-21T18:44:56.359Z,25.87
2023-02-21T18:47:57.962Z,24.00
2023-02-21T18:50:59.664Z,27.00
2023-02-21T18:54:02.016Z,26.93
2023-02-21T18:57:03.682Z,28.90
2023-02-21T19:00:07.065Z,35.43
2023-02-21T19:03:11.833Z,29.93
2023-02-21T19:06:17.166Z,33.97
2023-02-21T19:09:18.820Z,29.90
2023-02-21T19:12:20.401Z,27.10
2023-02-21T19:15:22.053Z,25.93
2023-02-21T19:18:23.699Z,30.50
2023-02-21T19:21:26.551Z,27.37
2023-02-21T19:24:28.483Z,23.10
2023-02-21T19:27:30.117Z,22.40
2023-02-21T19:30:37.179Z,24.43
2023-02-21T19:33:40.004Z,23.43
2023-02-21T19:36:41.942Z,20.63
2023-02-21T19:39:43.718Z,21.03
2023-02-21T19:42:45.366Z,27.47
2023-02-21T19:45:47.355Z,24.60
2023-02-21T19:48:49.670Z,20.73
2023-02-21T19:51:53.407Z,37.10
2023-02-21T19:54:55.320Z,25.50
2023-02-21T19:57:57.113Z,22.50
2023-02-21T20:00:58.788Z,19.30
2023-02-21T20:04:01.530Z,17.23
2023-02-21T20:07:03.526Z,16.30
2023-02-21T20:10:05.629Z,17.87
2023-02-21T20:13:08.314Z,16.93
2023-02-21T20:16:11.081Z,26.93
2023-02-21T20:19:13.728Z,30.50
2023-02-21T20:22:15.420Z,29.57
2023-02-21T20:25:17.095Z,27.90
2023-02-21T20:28:19.915Z,25.97
2023-02-21T20:31:25.983Z,24.43
2023-02-21T20:34:28.109Z,24.70
2023-02-21T20:37:31.400Z,27.40
2023-02-21T20:40:35.038Z,27.27
2023-02-21T20:43:37.361Z,26.03
2023-02-21T20:46:38.941Z,25.37
2023-02-21T20:49:44.297Z,24.83
2023-02-21T20:52:46.727Z,23.83
2023-02-21T20:55:48.364Z,19.70
2023-02-21T20:58:50.236Z,23.27
2023-02-21T21:01:52.515Z,29.33
2023-02-21T21:04:54.371Z,31.60
2023-02-21T21:07:57.030Z,26.17
2023-02-21T21:10:58.748Z,25.30
2023-02-21T21:14:02.676Z,28.07
2023-02-21T21:17:04.602Z,27.50
2023-02-21T21:20:14.202Z,25.60
2023-02-21T21:23:15.810Z,26.60
2023-02-21T21:26:17.517Z,22.03
2023-02-21T21:29:23.887Z,23.47
2023-02-21T21:32:25.501Z,28.57
2023-02-21T21:35:30.007Z,21.70
2023-02-21T21:38:31.743Z,21.43
2023-02-21T21:41:34.316Z,21.80
2023-02-21T21:44:38.272Z,22.10
2023-02-21T21:47:39.884Z,18.57
2023-02-21T21:50:44.558Z,18.20
2023-02-21T21:53:47.269Z,19.70
2023-02-21T21:56:48.987Z,26.10
2023-02-21T21:59:50.725Z,23.37
2023-02-21T22:02:57.350Z,19.57
2023-02-21T22:06:00.464Z,16.70
2023-02-21T22:09:03.005Z,18.30
2023-02-21T22:12:06.265Z,20.97
2023-02-21T22:15:10.441Z,17.40
2023-02-21T22:18:18.083Z,21.23
2023-02-21T22:21:22.190Z,23.53
2023-02-21T22:24:25.207Z,18.67
2023-02-21T22:27:27.227Z,24.00
2023-02-21T22:30:28.922Z,22.50
2023-02-21T22:33:30.508Z,20.10
2023-02-21T22:36:32.898Z,23.80
2023-02-21T22:39:34.456Z,19.57
2023-02-21T22:42:36.030Z,23.40
2023-02-21T22:45:38.157Z,21.60
2023-02-21T22:48:40.024Z,21.77
2023-02-21T22:51:41.641Z,20.00
2023-02-21T22:54:43.281Z,18.40
2023-02-21T22:57:45.172Z,18.60
2023-02-21T23:00:48.427Z,24.17
2023-02-21T23:03:50.056Z,22.47
2023-02-21T23:06:57.371Z,18.57
2023-02-21T23:09:58.962Z,19.03
2023-02-21T23:13:00.832Z,18.07
2023-02-21T23:16:02.641Z,18.60
2023-02-21T23:19:06.817Z,17.63
2023-02-21T23:22:09.952Z,17.50
2023-02-21T23:25:19.915Z,24.80
2023-02-21T23:28:22.570Z,19.40
2023-02-21T23:31:24.164Z,24.70
2023-02-21T23:34:40.145Z,21.07
2023-02-21T23:37:46.761Z,22.40
2023-02-21T23:40:56.019Z,19.33
2023-02-21T23:43:58.150Z,23.90
2023-02-21T23:46:59.890Z,20.50
2023-02-21T23:50:01.489Z,19.63
2023-02-21T23:53:04.953Z,18.30
2023-02-21T23:56:07.210Z,20.73
2023-02-21T23:59:08.836Z,19.43
